createdAt,value
2017-07-04T00:00:02.569Z,1019.72
2017-07-04T00:05:03.107Z,1019.77
2017-07-04T00:10:03.482Z,1019.73
2017-07-04T00:15:02.830Z,1019.77
2017-07-04T00:20:03.174Z,1019.66
2017-07-04T00:25:02.525Z,1019.57
2017-07-04T00:30:02.787Z,1019.57
2017-07-04T00:35:03.135Z,1019.55
2017-07-04T00:40:03.467Z,1019.55
2017-07-04T00:45:02.776Z,1019.53
2017-07-04T00:50:03.081Z,1019.51
2017-07-04T00:55:02.527Z,1019.49
2017-07-04T01:00:03.073Z,1019.57
2017-07-04T01:05:03.434Z,1019.55
2017-07-04T01:10:02.748Z,1019.56
2017-07-04T01:15:03.136Z,1019.49
2017-07-04T01:20:03.444Z,1019.5
2017-07-04T01:25:02.794Z,1019.48
2017-07-04T01:30:03.073Z,1019.45
2017-07-04T01:35:03.341Z,1019.43
2017-07-04T01:40:02.690Z,1019.43
2017-07-04T01:45:03.068Z,1019.43
2017-07-04T01:50:02.525Z,1019.47
2017-07-04T01:55:02.934Z,1019.45
2017-07-04T02:00:03.272Z,1019.45
2017-07-04T02:05:02.710Z,1019.43
2017-07-04T02:10:03.097Z,1019.46
2017-07-04T02:15:03.392Z,1019.46
2017-07-04T02:20:02.707Z,1019.47
2017-07-04T02:25:03.175Z,1019.51
2017-07-04T02:30:03.446Z,1019.57
2017-07-04T02:35:02.875Z,1019.68
2017-07-04T02:40:03.250Z,1019.69
2017-07-04T02:45:02.687Z,1019.66
2017-07-04T02:50:03.130Z,1019.63
2017-07-04T02:55:03.427Z,1019.7
2017-07-04T03:00:02.779Z,1019.68
2017-07-04T03:05:03.107Z,1019.72
2017-07-04T03:10:02.544Z,1019.67
2017-07-04T03:15:02.983Z,1019.57
2017-07-04T03:20:03.445Z,1019.49
2017-07-04T03:25:02.721Z,1019.53
2017-07-04T03:30:03.201Z,1019.55
2017-07-04T03:35:02.640Z,1019.56
2017-07-04T03:40:03.060Z,1019.64
2017-07-04T03:50:03.137Z,1019.67
2017-07-04T03:55:02.665Z,1019.8
2017-07-04T04:00:02.980Z,1019.81
2017-07-04T04:05:03.307Z,1019.86
2017-07-04T04:10:02.778Z,1019.87
2017-07-04T04:15:03.143Z,1019.88
2017-07-04T04:20:03.445Z,1019.79
2017-07-04T04:25:02.928Z,1019.79
2017-07-04T04:30:02.906Z,1019.83
2017-07-04T04:35:03.310Z,1019.91
2017-07-04T04:40:02.725Z,1019.91
2017-07-04T04:45:02.984Z,1020
2017-07-04T04:50:03.343Z,1020.01
2017-07-04T04:55:02.706Z,1019.98
2017-07-04T05:00:03.152Z,1020
2017-07-04T05:05:03.411Z,1019.97
2017-07-04T05:10:02.988Z,1020.05
2017-07-04T05:15:03.327Z,1019.96
2017-07-04T05:20:02.677Z,1019.98
2017-07-04T05:25:03.094Z,1019.99
2017-07-04T05:30:03.363Z,1019.98
2017-07-04T05:35:02.611Z,1020.07
2017-07-04T05:40:03.065Z,1020.1
2017-07-04T05:45:03.317Z,1020.13
2017-07-04T05:50:02.790Z,1020.12
2017-07-04T05:55:03.205Z,1020.24
2017-07-04T06:00:02.640Z,1020.25
2017-07-04T06:05:02.933Z,1020.22
2017-07-04T06:10:03.414Z,1020.21
2017-07-04T06:15:02.925Z,1020.24
2017-07-04T06:20:03.287Z,1020.29
2017-07-04T06:25:02.697Z,1020.3
2017-07-04T06:30:03.216Z,1020.34
2017-07-04T06:35:02.516Z,1020.31
2017-07-04T06:40:03.026Z,1020.4
2017-07-04T06:45:03.497Z,1020.38
2017-07-04T06:50:02.854Z,1020.44
2017-07-04T06:55:03.287Z,1020.46
2017-07-04T07:00:02.558Z,1020.57
2017-07-04T07:05:02.980Z,1020.64
2017-07-04T07:10:03.464Z,1020.77
2017-07-04T07:15:02.916Z,1020.79
2017-07-04T07:20:03.241Z,1020.77
2017-07-04T07:25:02.646Z,1020.86
2017-07-04T07:30:03.064Z,1020.83
2017-07-04T07:35:03.337Z,1020.95
2017-07-04T07:40:02.787Z,1020.87
2017-07-04T07:45:03.099Z,1020.9
2017-07-04T07:50:02.586Z,1020.93
2017-07-04T07:55:03.084Z,1020.91
2017-07-04T08:05:03.224Z,1020.94
2017-07-04T08:10:02.588Z,1020.91
2017-07-04T08:15:02.900Z,1020.96
2017-07-04T08:20:03.507Z,1020.98
2017-07-04T08:25:02.531Z,1020.94
2017-07-04T08:30:03.204Z,1020.97
2017-07-04T08:35:02.590Z,1021.04
2017-07-04T08:40:02.868Z,1020.97
2017-07-04T08:45:02.885Z,1020.98
2017-07-04T08:50:03.033Z,1020.98
2017-07-04T08:55:02.796Z,1020.97
2017-07-04T09:00:02.873Z,1020.95
2017-07-04T09:05:03.539Z,1021
2017-07-04T09:10:02.991Z,1021.01
2017-07-04T09:15:02.621Z,1021.07
2017-07-04T09:20:02.859Z,1021.08
2017-07-04T09:25:02.817Z,1021.09
2017-07-04T09:30:02.643Z,1021.06
2017-07-04T09:35:02.939Z,1021.07
2017-07-04T09:40:03.462Z,1021.12
2017-07-04T09:45:02.602Z,1021.07
2017-07-04T09:50:02.735Z,1021.13
2017-07-04T09:55:03.599Z,1021.03
2017-07-04T10:00:02.982Z,1021.06
2017-07-04T10:05:03.114Z,1021
2017-07-04T10:10:03.289Z,1020.93
2017-07-04T10:15:02.586Z,1020.85
2017-07-04T10:20:02.777Z,1020.97
2017-07-04T10:25:02.891Z,1020.87
2017-07-04T10:30:03.063Z,1020.88
2017-07-04T10:35:02.561Z,1020.85
2017-07-04T10:40:03.202Z,1020.8
2017-07-04T10:45:02.613Z,1020.8
2017-07-04T10:50:02.800Z,1020.76
2017-07-04T10:55:02.507Z,1020.72
2017-07-04T11:00:02.788Z,1020.69
2017-07-04T11:05:02.601Z,1020.74
2017-07-04T11:10:02.680Z,1020.71
2017-07-04T11:15:03.285Z,1020.7
2017-07-04T11:20:02.966Z,1020.72
2017-07-04T11:25:03.356Z,1020.64
2017-07-04T11:30:02.999Z,1020.7
2017-07-04T11:35:02.601Z,1020.69
2017-07-04T11:40:02.697Z,1020.68
2017-07-04T11:45:03.127Z,1020.74
2017-07-04T11:50:03.229Z,1020.77
2017-07-04T11:55:03.205Z,1020.76
2017-07-04T12:00:02.733Z,1020.76
2017-07-04T12:05:02.700Z,1020.72
2017-07-04T12:10:02.831Z,1020.67
2017-07-04T12:15:02.681Z,1020.68
2017-07-04T12:20:03.323Z,1020.58
2017-07-04T12:25:02.908Z,1020.53
2017-07-04T12:30:03.361Z,1020.63
2017-07-04T12:35:03.287Z,1020.46
2017-07-04T12:40:02.937Z,1020.5
2017-07-04T12:45:02.748Z,1020.43
2017-07-04T12:50:03.379Z,1020.46
2017-07-04T12:55:02.637Z,1020.42
2017-07-04T13:00:02.875Z,1020.32
2017-07-04T13:05:03.004Z,1020.31
2017-07-04T13:10:03.306Z,1020.31
2017-07-04T13:15:02.868Z,1020.18
2017-07-04T13:20:02.885Z,1020.15
2017-07-04T13:25:02.840Z,1020.07
2017-07-04T13:30:03.006Z,1020.06
2017-07-04T13:35:03.215Z,1020.01
2017-07-04T13:40:03.250Z,1020
2017-07-04T13:45:02.596Z,1019.96
2017-07-04T13:50:03.133Z,1019.96
2017-07-04T13:55:03.441Z,1020.03
2017-07-04T14:00:02.782Z,1019.86
2017-07-04T14:05:02.535Z,1019.78
2017-07-04T14:10:03.455Z,1019.85
2017-07-04T14:15:02.830Z,1019.78
2017-07-04T14:20:03.210Z,1019.79
2017-07-04T14:25:03.157Z,1019.78
2017-07-04T14:30:02.614Z,1019.72
2017-07-04T14:35:02.575Z,1019.71
2017-07-04T14:40:03.109Z,1019.65
2017-07-04T14:45:03.367Z,1019.69
2017-07-04T14:50:02.615Z,1019.69
2017-07-04T14:55:02.914Z,1019.67
2017-07-04T15:00:03.431Z,1019.72
2017-07-04T15:05:03.476Z,1019.7
2017-07-04T15:10:02.895Z,1019.64
2017-07-04T15:15:03.134Z,1019.67
2017-07-04T15:20:03.328Z,1019.69
2017-07-04T15:25:02.594Z,1019.72
2017-07-04T15:30:02.980Z,1019.7
2017-07-04T15:35:02.869Z,1019.69
2017-07-04T15:40:03.083Z,1019.73
2017-07-04T15:45:02.930Z,1019.68
2017-07-04T15:50:03.012Z,1019.67
2017-07-04T15:55:03.265Z,1019.61
2017-07-04T16:00:02.575Z,1019.59
2017-07-04T16:05:03.029Z,1019.57
2017-07-04T16:10:03.204Z,1019.48
2017-07-04T16:15:03.431Z,1019.41
2017-07-04T16:20:02.767Z,1019.29
2017-07-04T16:25:03.226Z,1019.31
2017-07-04T16:30:02.558Z,1019.25
2017-07-04T16:35:02.718Z,1019.2
2017-07-04T16:40:03.236Z,1019.25
2017-07-04T16:45:03.387Z,1019.14
2017-07-04T16:50:02.604Z,1019.16
2017-07-04T16:55:02.691Z,1019.11
2017-07-04T17:00:03.043Z,1019.06
2017-07-04T17:05:02.754Z,1019.04
2017-07-04T17:10:03.196Z,1019.04
2017-07-04T17:15:02.649Z,1019.12
2017-07-04T17:20:03.282Z,1019.17
2017-07-04T17:25:03.429Z,1019.07
2017-07-04T17:30:02.529Z,1019.13
2017-07-04T17:35:03.272Z,1019.14
2017-07-04T17:40:02.790Z,1019.15
2017-07-04T17:45:03.226Z,1019.12
2017-07-04T17:50:03.401Z,1019.12
2017-07-04T17:55:03.269Z,1019.09
2017-07-04T18:00:03.323Z,1019.05
2017-07-04T18:05:02.778Z,1018.96
2017-07-04T18:10:02.894Z,1018.99
2017-07-04T18:15:02.749Z,1018.99
2017-07-04T18:20:03.261Z,1018.98
2017-07-04T18:25:02.634Z,1018.95
2017-07-04T18:30:03.340Z,1018.89
2017-07-04T18:35:03.445Z,1018.89
2017-07-04T18:40:02.841Z,1018.91
2017-07-04T18:45:02.919Z,1018.87
2017-07-04T18:50:02.664Z,1018.87
2017-07-04T18:55:03.190Z,1018.87
2017-07-04T19:00:03.203Z,1018.89
2017-07-04T19:05:02.571Z,1018.88
2017-07-04T19:10:03.144Z,1018.8
2017-07-04T19:15:02.579Z,1018.78
2017-07-04T19:20:03.310Z,1018.73
2017-07-04T19:25:03.453Z,1018.76
2017-07-04T19:30:03.432Z,1018.83
2017-07-04T19:35:03.108Z,1018.76
2017-07-04T19:40:02.752Z,1018.8
2017-07-04T19:45:02.491Z,1018.84
2017-07-04T19:50:02.822Z,1018.85
2017-07-04T19:55:02.949Z,1018.85
2017-07-04T20:00:03.161Z,1018.86
2017-07-04T20:05:02.710Z,1018.88
2017-07-04T20:10:03.443Z,1018.86
2017-07-04T20:15:02.764Z,1018.9
2017-07-04T20:20:03.049Z,1018.84
2017-07-04T20:25:02.675Z,1018.85
2017-07-04T20:30:02.732Z,1018.86
2017-07-04T20:35:03.448Z,1018.87
2017-07-04T20:40:03.519Z,1018.87
2017-07-04T20:45:02.783Z,1018.92
2017-07-04T20:50:02.665Z,1018.9
2017-07-04T20:55:03.388Z,1018.92
2017-07-04T21:00:03.376Z,1018.85
2017-07-04T21:05:02.831Z,1018.87
2017-07-04T21:10:03.000Z,1018.92
2017-07-04T21:15:02.663Z,1018.92
2017-07-04T21:20:02.580Z,1018.9
2017-07-04T21:25:03.033Z,1018.95
2017-07-04T21:30:02.769Z,1019.02
2017-07-04T21:35:03.474Z,1018.96
2017-07-04T21:40:03.072Z,1018.9
2017-07-04T21:45:03.459Z,1018.98
2017-07-04T21:50:02.724Z,1018.84
2017-07-04T21:55:03.008Z,1018.81
2017-07-04T22:00:03.454Z,1018.85
2017-07-04T22:05:02.705Z,1018.84
2017-07-04T22:10:03.056Z,1018.82
2017-07-04T22:15:03.317Z,1018.93
2017-07-04T22:20:02.809Z,1018.94
2017-07-04T22:25:03.062Z,1018.84
2017-07-04T22:30:03.447Z,1018.82
2017-07-04T22:35:02.801Z,1018.78
2017-07-04T22:40:03.290Z,1018.72
2017-07-04T22:45:02.674Z,1018.73
2017-07-04T22:50:03.075Z,1018.74
2017-07-04T22:55:03.447Z,1018.64
2017-07-04T23:00:02.952Z,1018.68
2017-07-04T23:05:02.563Z,1018.58
2017-07-04T23:10:03.129Z,1018.59
2017-07-04T23:15:03.439Z,1018.54
2017-07-04T23:20:02.768Z,1018.54
2017-07-04T23:25:03.087Z,1018.55
2017-07-04T23:30:03.485Z,1018.49
2017-07-04T23:35:02.926Z,1018.36
2017-07-04T23:40:03.332Z,1018.27
2017-07-04T23:45:02.821Z,1018.25
2017-07-04T23:50:03.205Z,1018.21
2017-07-04T23:55:02.547Z,1018.22
